Time;durP1;ratioP1;P1;durP2;ratioP2;P2;SDS_P1;SDS_P2;PMS_P1;PMS_P2;Temp;Humidity;BMP_temperature;BMP_pressure;BME280_temperature;BME280_humidity;BME280_pressure;Samples;Min_cycle;Max_cycle;Signal;HPM_P1;HPM_P2
2023/02/18 00:00:17;;;;;;;;;;;;;;;;;;5059864;28;19921;-81
2023/02/18 00:02:43;;;;;;;;;;;;;;;;;;5060245;28;19924;-81
2023/02/18 00:05:09;;;;;;;;;;;;;;;;;;5057725;28;19973;-80
2023/02/18 00:07:35;;;;;;;;;;;;;;;;;;5059634;28;19979;-81
2023/02/18 00:10:01;;;;;;;;;;;;;;;;;;5059797;28;19982;-81
2023/02/18 00:12:27;;;;;;;;;;;;;;;;;;5068467;28;19935;-81
2023/02/18 00:14:53;;;;;;;;;;;;;;;;;;5062200;28;19921;-81
2023/02/18 00:17:19;;;;;;;;;;;;;;;;;;5045062;28;19964;-81
2023/02/18 00:19:45;;;;;;;;;;;;;;;;;;5049055;28;19977;-81
2023/02/18 00:22:11;;;;;;;;;;;;;;;;;;5047743;28;19921;-81
2023/02/18 00:24:37;;;;;;;;;;;;;;;;;;5060737;28;19924;-81
2023/02/18 00:27:03;;;;;;;;;;;;;;;;;;5049205;28;19974;-81
2023/02/18 00:29:29;;;;;;;;;;;;;;;;;;5051697;28;19948;-81
2023/02/18 00:31:55;;;;;;;;;;;;;;;;;;5051758;28;19931;-81
2023/02/18 00:34:21;;;;;;;;;;;;;;;;;;5043316;28;20225;-81
2023/02/18 00:36:47;;;;;;;;;;;;;;;;;;5050828;28;19924;-81
2023/02/18 00:39:13;;;;;;;;;;;;;;;;;;5048112;28;20011;-81
2023/02/18 00:41:39;;;;;;;;;;;;;;;;;;5060309;28;19959;-80
2023/02/18 00:44:04;;;;;;;;;;;;;;;;;;5043589;28;19946;-81
2023/02/18 00:46:30;;;;;;;;;;;;;;;;;;5043095;28;20699;-81
2023/02/18 00:48:56;;;;;;;;;;;;;;;;;;5048257;28;20267;-81
2023/02/18 00:51:22;;;;;;;;;;;;;;;;;;5048633;28;20448;-81
2023/02/18 00:53:48;;;;;;;;;;;;;;;;;;5060650;28;20114;-81
2023/02/18 00:56:14;;;;;;;;;;;;;;;;;;5051343;28;19942;-81
2023/02/18 00:58:40;;;;;;;;;;;;;;;;;;5047669;28;19920;-81
2023/02/18 01:01:06;;;;;;;;;;;;;;;;;;5049729;28;19920;-81
2023/02/18 01:03:32;;;;;;;;;;;;;;;;;;5048706;28;20062;-81
2023/02/18 01:05:58;;;;;;;;;;;;;;;;;;5050779;28;19924;-81
2023/02/18 01:08:24;;;;;;;;;;;;;;;;;;5054628;28;19924;-82
2023/02/18 01:10:50;;;;;;;;;;;;;;;;;;5063831;28;19930;-81
2023/02/18 01:13:16;;;;;;;;;;;;;;;;;;5052940;28;19966;-81
2023/02/18 01:15:42;;;;;;;;;;;;;;;;;;5049720;28;19946;-81
2023/02/18 01:18:08;;;;;;;;;;;;;;;;;;5054801;28;20375;-81
2023/02/18 01:20:33;;;;;;;;;;;;;;;;;;5048434;28;19920;-81
2023/02/18 01:22:59;;;;;;;;;;;;;;;;;;5065797;28;19963;-81
2023/02/18 01:25:25;;;;;;;;;;;;;;;;;;5052421;28;19920;-81
2023/02/18 01:27:51;;;;;;;;;;;;;;;;;;5053495;28;20070;-81
2023/02/18 01:30:17;;;;;;;;;;;;;;;;;;5055518;28;20294;-81
2023/02/18 01:32:43;;;;;;;;;;;;;;;;;;5064960;28;19916;-81
2023/02/18 01:35:09;;;;;;;;;;;;;;;;;;5071523;28;19927;-81
2023/02/18 01:37:35;;;;;;;;;;;;;;;;;;5050334;28;19928;-81
2023/02/18 01:40:01;;;;;;;;;;;;;;;;;;5071927;28;20470;-81
2023/02/18 01:42:27;;;;;;;;;;;;;;;;;;5063646;28;19935;-81
2023/02/18 01:44:53;;;;;;;;;;;;;;;;;;5069224;28;19920;-81
2023/02/18 01:47:18;;;;;;;;;;;;;;;;;;5051502;28;19928;-81
2023/02/18 01:49:45;;;;;;;;;;;;;;;;;;5052065;28;19920;-81
2023/02/18 01:52:11;;;;;;;;;;;;;;;;;;5048306;28;20422;-81
2023/02/18 01:54:38;;;;;;;;;;;;;;;;;;5052263;28;19925;-81
2023/02/18 01:57:04;;;;;;;;;;;;;;;;;;5061458;28;19928;-81
2023/02/18 01:59:30;;;;;;;;;;;;;;;;;;5062212;28;19920;-81
2023/02/18 02:01:56;;;;;;;;;;;;;;;;;;5063436;28;19920;-81
2023/02/18 02:04:22;;;;;;;;;;;;;;;;;;5052008;28;19924;-81
2023/02/18 02:06:48;;;;;;;;;;;;;;;;;;5050717;28;19920;-81
2023/02/18 02:09:14;;;;;;;;;;;;;;;;;;5048139;28;19994;-81
2023/02/18 02:11:40;;;;;;;;;;;;;;;;;;5046062;28;19928;-81
2023/02/18 02:14:05;;;;;;;;;;;;;;;;;;5066635;28;20007;-81
2023/02/18 02:16:31;;;;;;;;;;;;;;;;;;5063735;28;20022;-81
2023/02/18 02:18:57;;;;;;;;;;;;;;;;;;5047728;28;21334;-81
2023/02/18 02:21:23;;;;;;;;;;;;;;;;;;5051704;28;19942;-81
2023/02/18 02:23:49;;;;;;;;;;;;;;;;;;5062409;28;20348;-81
2023/02/18 02:26:15;;;;;;;;;;;;;;;;;;5044385;28;19921;-81
2023/02/18 02:28:41;;;;;;;;;;;;;;;;;;5063545;28;19931;-81
2023/02/18 02:31:07;;;;;;;;;;;;;;;;;;5051740;28;19939;-81
2023/02/18 02:33:33;;;;;;;;;;;;;;;;;;5064921;28;20639;-81
2023/02/18 02:35:59;;;;;;;;;;;;;;;;;;5044868;28;20402;-81
2023/02/18 02:38:25;;;;;;;;;;;;;;;;;;5064667;28;19920;-81
2023/02/18 02:40:51;;;;;;;;;;;;;;;;;;5060134;28;19920;-81
2023/02/18 02:43:17;;;;;;;;;;;;;;;;;;5052561;28;19920;-81
2023/02/18 02:45:42;;;;;;;;;;;;;;;;;;5060571;28;19927;-80
2023/02/18 02:48:08;;;;;;;;;;;;;;;;;;5058881;28;20025;-81
2023/02/18 02:50:34;;;;;;;;;;;;;;;;;;5047701;28;19920;-80
2023/02/18 02:53:00;;;;;;;;;;;;;;;;;;5048693;28;20026;-80
2023/02/18 02:55:26;;;;;;;;;;;;;;;;;;5055288;28;19920;-80
2023/02/18 02:57:52;;;;;;;;;;;;;;;;;;5054290;28;19925;-80
2023/02/18 03:00:18;;;;;;;;;;;;;;;;;;5065345;28;20010;-81
2023/02/18 03:02:44;;;;;;;;;;;;;;;;;;5053846;28;19959;-82
2023/02/18 03:05:10;;;;;;;;;;;;;;;;;;5047060;28;19929;-81
2023/02/18 03:07:36;;;;;;;;;;;;;;;;;;5047342;28;19920;-82
2023/02/18 03:10:02;;;;;;;;;;;;;;;;;;5055413;28;20038;-81
2023/02/18 03:12:28;;;;;;;;;;;;;;;;;;5051168;28;19932;-82
2023/02/18 03:14:54;;;;;;;;;;;;;;;;;;5066871;28;19921;-82
2023/02/18 03:17:19;;;;;;;;;;;;;;;;;;5047962;28;19943;-81
2023/02/18 03:19:45;;;;;;;;;;;;;;;;;;5056634;28;20654;-82
2023/02/18 03:22:11;;;;;;;;;;;;;;;;;;5065522;28;20444;-81
2023/02/18 03:24:37;;;;;;;;;;;;;;;;;;5063843;28;20393;-81
2023/02/18 03:27:03;;;;;;;;;;;;;;;;;;5048857;28;20397;-82
2023/02/18 03:29:29;;;;;;;;;;;;;;;;;;5049101;28;19924;-82
2023/02/18 03:31:55;;;;;;;;;;;;;;;;;;5050229;28;20423;-81
2023/02/18 03:34:21;;;;;;;;;;;;;;;;;;5049093;28;19920;-81
2023/02/18 03:36:47;;;;;;;;;;;;;;;;;;5053910;28;19927;-82
2023/02/18 03:39:28;;;;;;;;;;;;;;;;;;5057484;28;19924;-81
2023/02/18 03:41:54;;;;;;;;;;;;;;;;;;5066553;28;20015;-82
2023/02/18 03:44:20;;;;;;;;;;;;;;;;;;5054837;28;19954;-82
2023/02/18 03:46:46;;;;;;;;;;;;;;;;;;5048621;28;19949;-81
2023/02/18 03:49:12;;;;;;;;;;;;;;;;;;5059555;28;20283;-82
2023/02/18 03:51:38;;;;;;;;;;;;;;;;;;5059381;28;20296;-81
2023/02/18 03:54:04;;;;;;;;;;;;;;;;;;5062543;28;20318;-81
2023/02/18 03:56:30;;;;;;;;;;;;;;;;;;5054886;28;20405;-81
2023/02/18 03:58:56;;;;;;;;;;;;;;;;;;5064427;28;19924;-83
2023/02/18 04:01:21;;;;;;;;;;;;;;;;;;5047624;28;20019;-82
2023/02/18 04:03:47;;;;;;;;;;;;;;;;;;5045586;28;20338;-81
2023/02/18 04:06:13;;;;;;;;;;;;;;;;;;5051102;28;19924;-81
2023/02/18 04:08:39;;;;;;;;;;;;;;;;;;5047319;28;19920;-81
2023/02/18 04:11:05;;;;;;;;;;;;;;;;;;5050555;28;19937;-82
2023/02/18 04:13:31;;;;;;;;;;;;;;;;;;5053502;28;20027;-81
2023/02/18 04:15:57;;;;;;;;;;;;;;;;;;5048588;28;19920;-81
2023/02/18 04:18:23;;;;;;;;;;;;;;;;;;5052353;28;21259;-82
2023/02/18 04:20:49;;;;;;;;;;;;;;;;;;5045195;28;19920;-82
2023/02/18 04:23:15;;;;;;;;;;;;;;;;;;5056640;28;19955;-81
2023/02/18 04:25:41;;;;;;;;;;;;;;;;;;5061504;28;19946;-81
2023/02/18 04:28:10;;;;;;;;;;;;;;;;;;5049402;28;19989;-82
2023/02/18 04:30:35;;;;;;;;;;;;;;;;;;5046587;28;20363;-81
2023/02/18 04:33:01;;;;;;;;;;;;;;;;;;5042812;28;19966;-81
2023/02/18 04:35:27;;;;;;;;;;;;;;;;;;5045177;28;19920;-81
2023/02/18 04:37:53;;;;;;;;;;;;;;;;;;5051905;28;19920;-81
2023/02/18 04:40:19;;;;;;;;;;;;;;;;;;5058609;28;19920;-81
2023/02/18 04:42:45;;;;;;;;;;;;;;;;;;5071860;28;19931;-81
2023/02/18 04:45:11;;;;;;;;;;;;;;;;;;5057770;28;19920;-81
2023/02/18 04:47:37;;;;;;;;;;;;;;;;;;5059044;28;19934;-81
2023/02/18 04:50:03;;;;;;;;;;;;;;;;;;5058283;28;19942;-81
2023/02/18 04:52:29;;;;;;;;;;;;;;;;;;5052239;28;20245;-82
2023/02/18 04:54:55;;;;;;;;;;;;;;;;;;5057700;28;20019;-82
2023/02/18 04:57:21;;;;;;;;;;;;;;;;;;5058319;28;19928;-82
2023/02/18 04:59:47;;;;;;;;;;;;;;;;;;5060257;28;19962;-82
2023/02/18 05:02:12;;;;;;;;;;;;;;;;;;5049917;28;19929;-81
2023/02/18 05:04:38;;;;;;;;;;;;;;;;;;5058110;28;19928;-81
2023/02/18 05:07:04;;;;;;;;;;;;;;;;;;5069109;22;19929;-82
2023/02/18 05:09:30;;;;;;;;;;;;;;;;;;5006582;28;19929;-81
2023/02/18 05:11:56;;;;;;;;;;;;;;;;;;5003480;28;20016;-82
2023/02/18 05:14:22;;;;;;;;;;;;;;;;;;5003820;28;19948;-82
2023/02/18 05:16:48;;;;;;;;;;;;;;;;;;5006258;28;19921;-83
2023/02/18 05:19:14;;;;;;;;;;;;;;;;;;4996017;28;19930;-83
2023/02/18 05:21:40;;;;;;;;;;;;;;;;;;4990111;28;20216;-83
2023/02/18 05:24:07;;;;;;;;;;;;;;;;;;4987926;28;19929;-81
2023/02/18 05:26:33;;;;;;;;;;;;;;;;;;5001469;28;19933;-80
2023/02/18 05:28:59;;;;;;;;;;;;;;;;;;5019373;28;19925;-80
2023/02/18 05:31:25;;;;;;;;;;;;;;;;;;5017199;28;19976;-81
2023/02/18 05:33:51;;;;;;;;;;;;;;;;;;4998544;28;19932;-82
2023/02/18 05:36:17;;;;;;;;;;;;;;;;;;4985906;28;19921;-81
2023/02/18 05:38:43;;;;;;;;;;;;;;;;;;5001465;28;19925;-81
2023/02/18 05:41:08;;;;;;;;;;;;;;;;;;5001403;28;19928;-82
2023/02/18 05:44:29;;;;;;;;;;;;;;;;;;4985645;28;20201;-82
2023/02/18 05:46:20;;;;;;;;;;;;;;;;;;5001845;28;20357;-83
2023/02/18 05:48:46;;;;;;;;;;;;;;;;;;5003193;28;19929;-82
2023/02/18 05:51:12;;;;;;;;;;;;;;;;;;4993939;28;19981;-82
2023/02/18 05:53:38;;;;;;;;;;;;;;;;;;5001812;28;19921;-81
2023/02/18 05:56:04;;;;;;;;;;;;;;;;;;5003874;28;19957;-83
2023/02/18 05:58:30;;;;;;;;;;;;;;;;;;4999314;28;19922;-83
2023/02/18 06:00:56;;;;;;;;;;;;;;;;;;5000226;28;19948;-82
2023/02/18 06:03:22;;;;;;;;;;;;;;;;;;4994993;28;19976;-83
2023/02/18 06:05:48;;;;;;;;;;;;;;;;;;4990700;28;20403;-83
2023/02/18 06:08:14;;;;;;;;;;;;;;;;;;4993624;28;20489;-82
2023/02/18 06:10:40;;;;;;;;;;;;;;;;;;4994601;28;20907;-82
2023/02/18 06:13:05;;;;;;;;;;;;;;;;;;5013575;28;19921;-81
2023/02/18 06:15:31;;;;;;;;;;;;;;;;;;4995230;28;19929;-82
2023/02/18 06:17:57;;;;;;;;;;;;;;;;;;4979538;28;19921;-83
2023/02/18 06:20:23;;;;;;;;;;;;;;;;;;4992194;28;19932;-82
2023/02/18 06:22:49;;;;;;;;;;;;;;;;;;4995151;28;20004;-82
2023/02/18 06:25:15;;;;;;;;;;;;;;;;;;4992103;28;19921;-83
2023/02/18 06:27:41;;;;;;;;;;;;;;;;;;4994630;28;19934;-82
2023/02/18 06:30:07;;;;;;;;;;;;;;;;;;5008738;28;19921;-81
2023/02/18 06:32:33;;;;;;;;;;;;;;;;;;4998093;28;19983;-80
2023/02/18 06:34:59;;;;;;;;;;;;;;;;;;4967085;28;19925;-81
2023/02/18 06:37:25;;;;;;;;;;;;;;;;;;4991346;28;19922;-80
2023/02/18 06:39:51;;;;;;;;;;;;;;;;;;5001175;28;19991;-83
2023/02/18 06:42:16;;;;;;;;;;;;;;;;;;4999309;28;20292;-82
2023/02/18 06:44:42;;;;;;;;;;;;;;;;;;5000786;28;20283;-83
2023/02/18 06:47:08;;;;;;;;;;;;;;;;;;4999294;28;20386;-81
2023/02/18 06:49:35;;;;;;;;;;;;;;;;;;5015657;28;19921;-81
2023/02/18 06:52:01;;;;;;;;;;;;;;;;;;4998763;28;19929;-81
2023/02/18 06:54:27;;;;;;;;;;;;;;;;;;4984578;28;19967;-82
2023/02/18 06:56:53;;;;;;;;;;;;;;;;;;4991451;28;19933;-83
2023/02/18 06:59:18;;;;;;;;;;;;;;;;;;4981100;28;19925;-83
2023/02/18 07:01:44;;;;;;;;;;;;;;;;;;4993798;28;19930;-82
2023/02/18 07:04:10;;;;;;;;;;;;;;;;;;4992141;28;20287;-82
2023/02/18 07:06:36;;;;;;;;;;;;;;;;;;4990422;28;20012;-80
2023/02/18 07:09:02;;;;;;;;;;;;;;;;;;4977485;28;19933;-80
2023/02/18 07:11:28;;;;;;;;;;;;;;;;;;4958865;28;20486;-84
2023/02/18 07:13:54;;;;;;;;;;;;;;;;;;4976253;28;19997;-80
2023/02/18 07:16:20;;;;;;;;;;;;;;;;;;4972725;28;19921;-82
2023/02/18 07:18:46;;;;;;;;;;;;;;;;;;4969405;28;19936;-82
2023/02/18 07:21:12;;;;;;;;;;;;;;;;;;4976378;28;19972;-82
2023/02/18 07:23:38;;;;;;;;;;;;;;;;;;4977937;28;19957;-82
2023/02/18 07:26:04;;;;;;;;;;;;;;;;;;4967828;28;19972;-82
2023/02/18 07:28:30;;;;;;;;;;;;;;;;;;4980689;28;19975;-83
2023/02/18 07:30:56;;;;;;;;;;;;;;;;;;4977679;28;19969;-82
2023/02/18 07:33:22;;;;;;;;;;;;;;;;;;4974152;28;19940;-81
2023/02/18 07:35:47;;;;;;;;;;;;;;;;;;4967999;28;21652;-83
2023/02/18 07:38:13;;;;;;;;;;;;;;;;;;4983836;28;20419;-84
2023/02/18 07:40:39;;;;;;;;;;;;;;;;;;4980144;28;20390;-81
2023/02/18 07:43:05;;;;;;;;;;;;;;;;;;4976743;28;20111;-82
2023/02/18 07:45:31;;;;;;;;;;;;;;;;;;4978197;28;19964;-82
2023/02/18 07:47:57;;;;;;;;;;;;;;;;;;4981660;28;20284;-82
2023/02/18 07:50:23;;;;;;;;;;;;;;;;;;4975168;28;19936;-84
2023/02/18 07:52:49;;;;;;;;;;;;;;;;;;4977872;28;19926;-80
2023/02/18 07:55:15;;;;;;;;;;;;;;;;;;4952111;28;20406;-83
2023/02/18 07:57:56;;;;;;;;;;;;;;;;;;4973588;28;19926;-83
2023/02/18 08:00:22;;;;;;;;;;;;;;;;;;4972498;28;19932;-81
2023/02/18 08:02:47;;;;;;;;;;;;;;;;;;4964771;28;19929;-82
2023/02/18 08:05:13;;;;;;;;;;;;;;;;;;4977080;28;20020;-82
2023/02/18 08:07:39;;;;;;;;;;;;;;;;;;4985708;28;19921;-83
2023/02/18 08:10:05;;;;;;;;;;;;;;;;;;4994969;28;19960;-83
2023/02/18 08:12:31;;;;;;;;;;;;;;;;;;4994660;28;19933;-83
2023/02/18 08:14:57;;;;;;;;;;;;;;;;;;4998403;28;19929;-82
2023/02/18 08:17:23;;;;;;;;;;;;;;;;;;4986962;28;20391;-83
2023/02/18 08:19:49;;;;;;;;;;;;;;;;;;5001901;28;20407;-82
2023/02/18 08:22:15;;;;;;;;;;;;;;;;;;4977465;28;19928;-82
2023/02/18 08:24:41;;;;;;;;;;;;;;;;;;5001761;28;20016;-83
2023/02/18 08:27:07;;;;;;;;;;;;;;;;;;4999365;28;20012;-81
2023/02/18 08:29:33;;;;;;;;;;;;;;;;;;4999669;28;19947;-82
2023/02/18 08:31:58;;;;;;;;;;;;;;;;;;4984580;28;20389;-83
2023/02/18 08:34:24;;;;;;;;;;;;;;;;;;4997149;28;20300;-83
2023/02/18 08:36:50;;;;;;;;;;;;;;;;;;4998745;28;20419;-82
2023/02/18 08:39:16;;;;;;;;;;;;;;;;;;4991769;28;19952;-83
2023/02/18 08:41:42;;;;;;;;;;;;;;;;;;5001811;28;19922;-82
2023/02/18 08:44:08;;;;;;;;;;;;;;;;;;4998996;28;19948;-83
2023/02/18 08:46:34;;;;;;;;;;;;;;;;;;4997549;28;19954;-82
2023/02/18 08:49:00;;;;;;;;;;;;;;;;;;5000346;28;20004;-82
2023/02/18 08:51:27;;;;;;;;;;;;;;;;;;4988132;28;19948;-82
2023/02/18 08:53:53;;;;;;;;;;;;;;;;;;5000735;28;20015;-81
2023/02/18 08:56:19;;;;;;;;;;;;;;;;;;5006971;28;20408;-84
2023/02/18 08:58:45;;;;;;;;;;;;;;;;;;4994417;28;20383;-82
2023/02/18 09:01:10;;;;;;;;;;;;;;;;;;4999071;28;19929;-83
2023/02/18 09:03:36;;;;;;;;;;;;;;;;;;4996074;28;20387;-83
2023/02/18 09:06:02;;;;;;;;;;;;;;;;;;5014282;28;19953;-83
2023/02/18 09:08:28;;;;;;;;;;;;;;;;;;4976598;28;19925;-83
2023/02/18 09:10:54;;;;;;;;;;;;;;;;;;4997710;28;19926;-82
2023/02/18 09:13:20;;;;;;;;;;;;;;;;;;4996330;28;19976;-81
2023/02/18 09:15:46;;;;;;;;;;;;;;;;;;4984117;28;20339;-84
2023/02/18 09:18:12;;;;;;;;;;;;;;;;;;4996717;28;20052;-81
2023/02/18 09:20:38;;;;;;;;;;;;;;;;;;4982070;28;20397;-82
2023/02/18 09:23:04;;;;;;;;;;;;;;;;;;4983726;28;20296;-82
2023/02/18 09:25:30;;;;;;;;;;;;;;;;;;4996294;28;20156;-82
2023/02/18 09:27:56;;;;;;;;;;;;;;;;;;4983965;28;19925;-82
2023/02/18 09:30:22;;;;;;;;;;;;;;;;;;4998649;28;20360;-83
2023/02/18 09:32:48;;;;;;;;;;;;;;;;;;4993349;28;19925;-83
2023/02/18 09:35:14;;;;;;;;;;;;;;;;;;4996194;28;19951;-79
2023/02/18 09:37:40;;;;;;;;;;;;;;;;;;4993730;28;19945;-82
2023/02/18 09:40:06;;;;;;;;;;;;;;;;;;4995904;28;19950;-84
2023/02/18 09:42:32;;;;;;;;;;;;;;;;;;4996335;28;20001;-83
2023/02/18 09:44:58;;;;;;;;;;;;;;;;;;4996334;28;19944;-84
2023/02/18 09:47:24;;;;;;;;;;;;;;;;;;4993576;28;23133;-83
2023/02/18 09:49:50;;;;;;;;;;;;;;;;;;4998188;28;19948;-83
2023/02/18 09:52:16;;;;;;;;;;;;;;;;;;4993575;28;20684;-82
2023/02/18 09:54:42;;;;;;;;;;;;;;;;;;5000206;28;19921;-81
2023/02/18 09:57:07;;;;;;;;;;;;;;;;;;4983899;28;20008;-83
2023/02/18 09:59:33;;;;;;;;;;;;;;;;;;4998617;28;19965;-82
2023/02/18 10:01:59;;;;;;;;;;;;;;;;;;4990230;28;19933;-82
2023/02/18 10:04:25;;;;;;;;;;;;;;;;;;4999026;28;19928;-83
2023/02/18 10:06:51;;;;;;;;;;;;;;;;;;4987866;28;19922;-81
2023/02/18 10:09:18;;;;;;;;;;;;;;;;;;4970655;28;19936;-83
2023/02/18 10:11:44;;;;;;;;;;;;;;;;;;4979598;28;19930;-81
2023/02/18 10:14:10;;;;;;;;;;;;;;;;;;4999777;28;19977;-80
2023/02/18 10:16:35;;;;;;;;;;;;;;;;;;5004556;28;19914;-82
2023/02/18 10:19:01;;;;;;;;;;;;;;;;;;4983138;28;19928;-82
2023/02/18 10:21:29;;;;;;;;;;;;;;;;;;4982815;28;19972;-81
2023/02/18 10:23:55;;;;;;;;;;;;;;;;;;4964747;28;21207;-83
2023/02/18 10:26:21;;;;;;;;;;;;;;;;;;4965421;28;19921;-83
2023/02/18 10:28:47;;;;;;;;;;;;;;;;;;4978131;28;20048;-83
2023/02/18 10:31:13;;;;;;;;;;;;;;;;;;4962702;28;19933;-83
2023/02/18 10:33:38;;;;;;;;;;;;;;;;;;4983192;28;19964;-84
2023/02/18 10:36:04;;;;;;;;;;;;;;;;;;4983399;28;19921;-83
2023/02/18 10:38:30;;;;;;;;;;;;;;;;;;4983201;28;19921;-83
2023/02/18 10:40:56;;;;;;;;;;;;;;;;;;4984532;28;21975;-82
2023/02/18 10:43:22;;;;;;;;;;;;;;;;;;4995242;28;19929;-82
2023/02/18 10:45:48;;;;;;;;;;;;;;;;;;4981168;28;19988;-82
2023/02/18 10:48:14;;;;;;;;;;;;;;;;;;4964821;28;19922;-83
2023/02/18 10:50:40;;;;;;;;;;;;;;;;;;4983319;28;20277;-83
2023/02/18 10:53:06;;;;;;;;;;;;;;;;;;4984616;28;19930;-82
2023/02/18 10:55:32;;;;;;;;;;;;;;;;;;4982674;28;19922;-82
2023/02/18 10:57:58;;;;;;;;;;;;;;;;;;4964495;28;19929;-82
2023/02/18 11:00:25;;;;;;;;;;;;;;;;;;4974743;28;20049;-83
2023/02/18 11:02:51;;;;;;;;;;;;;;;;;;4964379;28;20230;-82
2023/02/18 11:05:17;;;;;;;;;;;;;;;;;;4977836;28;19929;-83
2023/02/18 11:07:43;;;;;;;;;;;;;;;;;;4989661;28;20005;-83
2023/02/18 11:10:09;;;;;;;;;;;;;;;;;;4997223;28;19945;-81
2023/02/18 11:12:35;;;;;;;;;;;;;;;;;;5000730;28;19930;-83
2023/02/18 11:15:01;;;;;;;;;;;;;;;;;;4997441;28;19927;-83
2023/02/18 11:17:26;;;;;;;;;;;;;;;;;;4983408;28;19976;-82
2023/02/18 11:19:52;;;;;;;;;;;;;;;;;;4985623;28;19921;-82
2023/02/18 11:22:18;;;;;;;;;;;;;;;;;;4998530;28;19925;-83
2023/02/18 11:24:47;;;;;;;;;;;;;;;;;;5015681;28;19975;-83
2023/02/18 11:27:13;;;;;;;;;;;;;;;;;;4995627;28;20029;-82
2023/02/18 11:29:39;;;;;;;;;;;;;;;;;;4995726;28;19988;-83
2023/02/18 11:32:05;;;;;;;;;;;;;;;;;;4995715;28;20067;-83
2023/02/18 11:34:31;;;;;;;;;;;;;;;;;;4991061;28;20507;-82
2023/02/18 11:36:57;;;;;;;;;;;;;;;;;;4988445;28;19922;-82
2023/02/18 11:39:23;;;;;;;;;;;;;;;;;;4990685;28;19921;-83
2023/02/18 11:41:49;;;;;;;;;;;;;;;;;;4989432;28;19922;-82
2023/02/18 11:44:15;;;;;;;;;;;;;;;;;;4998025;28;19921;-82
2023/02/18 11:46:41;;;;;;;;;;;;;;;;;;4974604;28;19941;-82
2023/02/18 11:49:06;;;;;;;;;;;;;;;;;;4983885;28;19930;-83
2023/02/18 11:51:35;;;;;;;;;;;;;;;;;;4989390;28;19925;-82
2023/02/18 11:54:01;;;;;;;;;;;;;;;;;;4994815;28;19921;-83
2023/02/18 11:56:27;;;;;;;;;;;;;;;;;;4990807;28;19933;-81
2023/02/18 11:58:52;;;;;;;;;;;;;;;;;;4992854;28;19921;-83
2023/02/18 12:01:18;;;;;;;;;;;;;;;;;;4976989;28;19922;-81
2023/02/18 12:03:44;;;;;;;;;;;;;;;;;;4991116;28;19921;-83
2023/02/18 12:06:10;;;;;;;;;;;;;;;;;;4986848;28;19928;-83
2023/02/18 12:08:36;;;;;;;;;;;;;;;;;;4993368;28;19933;-83
2023/02/18 12:11:02;;;;;;;;;;;;;;;;;;4993681;28;19941;-83
2023/02/18 12:13:28;;;;;;;;;;;;;;;;;;4990091;28;19922;-83
2023/02/18 12:15:54;;;;;;;;;;;;;;;;;;4989303;28;19929;-83
2023/02/18 12:18:20;;;;;;;;;;;;;;;;;;4993188;28;20241;-85
2023/02/18 12:20:46;;;;;;;;;;;;;;;;;;4997034;28;20451;-81
2023/02/18 12:23:12;;;;;;;;;;;;;;;;;;5008021;28;20643;-83
2023/02/18 12:25:38;;;;;;;;;;;;;;;;;;5007078;28;19960;-83
2023/02/18 12:28:03;;;;;;;;;;;;;;;;;;4994889;28;19972;-81
2023/02/18 12:30:29;;;;;;;;;;;;;;;;;;4985024;28;20508;-82
2023/02/18 12:32:55;;;;;;;;;;;;;;;;;;4981016;28;19930;-84
2023/02/18 12:35:21;;;;;;;;;;;;;;;;;;5010312;28;19929;-83
2023/02/18 12:37:47;;;;;;;;;;;;;;;;;;5008239;28;19930;-85
2023/02/18 12:40:13;;;;;;;;;;;;;;;;;;5006118;28;19929;-83
2023/02/18 12:42:39;;;;;;;;;;;;;;;;;;4992705;28;20342;-82
2023/02/18 12:45:05;;;;;;;;;;;;;;;;;;4991435;28;20460;-83
2023/02/18 12:47:31;;;;;;;;;;;;;;;;;;4992891;28;20178;-83
2023/02/18 12:49:57;;;;;;;;;;;;;;;;;;4988847;28;19921;-84
2023/02/18 12:52:23;;;;;;;;;;;;;;;;;;4990579;28;19984;-83
2023/02/18 12:54:49;;;;;;;;;;;;;;;;;;4993310;28;19967;-82
2023/02/18 12:57:15;;;;;;;;;;;;;;;;;;4989151;28;20486;-82
2023/02/18 12:59:41;;;;;;;;;;;;;;;;;;4991773;28;19922;-81
2023/02/18 13:02:06;;;;;;;;;;;;;;;;;;4999137;28;19936;-81
2023/02/18 13:04:32;;;;;;;;;;;;;;;;;;4997675;28;20091;-82
2023/02/18 13:06:58;;;;;;;;;;;;;;;;;;4983202;28;19976;-81
2023/02/18 13:09:24;;;;;;;;;;;;;;;;;;4981191;28;19940;-84
2023/02/18 13:11:50;;;;;;;;;;;;;;;;;;4973814;28;20025;-83
2023/02/18 13:14:16;;;;;;;;;;;;;;;;;;4982840;28;19968;-81
2023/02/18 13:16:42;;;;;;;;;;;;;;;;;;4984293;28;19921;-83
2023/02/18 13:19:08;;;;;;;;;;;;;;;;;;4996884;28;19921;-83
2023/02/18 13:21:34;;;;;;;;;;;;;;;;;;4998249;28;20343;-83
2023/02/18 13:24:00;;;;;;;;;;;;;;;;;;4997588;28;19979;-83
2023/02/18 13:26:26;;;;;;;;;;;;;;;;;;5009768;28;19921;-83
2023/02/18 13:28:52;;;;;;;;;;;;;;;;;;5015964;28;20424;-82
2023/02/18 13:31:18;;;;;;;;;;;;;;;;;;4979066;28;19929;-82
2023/02/18 13:33:44;;;;;;;;;;;;;;;;;;4998844;28;19932;-84
2023/02/18 13:36:10;;;;;;;;;;;;;;;;;;4984682;28;20302;-83
2023/02/18 13:38:36;;;;;;;;;;;;;;;;;;4997429;28;19939;-83
2023/02/18 13:41:01;;;;;;;;;;;;;;;;;;4995993;28;20373;-84
2023/02/18 13:43:28;;;;;;;;;;;;;;;;;;4981980;28;20015;-83
2023/02/18 13:45:53;;;;;;;;;;;;;;;;;;4998947;28;20106;-83
2023/02/18 13:48:19;;;;;;;;;;;;;;;;;;4982821;28;19930;-82
2023/02/18 13:50:45;;;;;;;;;;;;;;;;;;4998635;28;20280;-82
2023/02/18 13:53:14;;;;;;;;;;;;;;;;;;4994449;28;20392;-82
2023/02/18 13:55:40;;;;;;;;;;;;;;;;;;4997464;28;19957;-83
2023/02/18 13:58:06;;;;;;;;;;;;;;;;;;4995124;28;20539;-83
2023/02/18 14:00:32;;;;;;;;;;;;;;;;;;4996469;28;19926;-82
2023/02/18 14:02:58;;;;;;;;;;;;;;;;;;4996953;28;19964;-83
2023/02/18 14:05:24;;;;;;;;;;;;;;;;;;4976442;28;20347;-82
2023/02/18 14:07:50;;;;;;;;;;;;;;;;;;4996224;28;19921;-80
2023/02/18 14:10:17;;;;;;;;;;;;;;;;;;4996703;28;20181;-82
2023/02/18 14:12:45;;;;;;;;;;;;;;;;;;4993158;28;19925;-82
2023/02/18 14:15:11;;;;;;;;;;;;;;;;;;4988876;28;19922;-82
2023/02/18 14:17:37;;;;;;;;;;;;;;;;;;4994480;28;19928;-82
2023/02/18 14:20:03;;;;;;;;;;;;;;;;;;5001918;28;20016;-81
2023/02/18 14:22:29;;;;;;;;;;;;;;;;;;4990354;28;20414;-81
2023/02/18 14:24:55;;;;;;;;;;;;;;;;;;4993589;28;19931;-82
2023/02/18 14:27:21;;;;;;;;;;;;;;;;;;4996921;28;20008;-80
2023/02/18 14:29:47;;;;;;;;;;;;;;;;;;4971472;28;19960;-83
2023/02/18 14:32:14;;;;;;;;;;;;;;;;;;5015489;28;20988;-82
2023/02/18 14:34:42;;;;;;;;;;;;;;;;;;4994301;28;21442;-82
2023/02/18 14:37:07;;;;;;;;;;;;;;;;;;5020091;28;19921;-82
2023/02/18 14:39:35;;;;;;;;;;;;;;;;;;5000337;28;20004;-83
2023/02/18 14:42:01;;;;;;;;;;;;;;;;;;4992470;28;19972;-81
2023/02/18 14:44:26;;;;;;;;;;;;;;;;;;4995721;28;19961;-82
2023/02/18 14:46:52;;;;;;;;;;;;;;;;;;4991728;28;20373;-83
2023/02/18 14:49:18;;;;;;;;;;;;;;;;;;4992835;28;19921;-82
2023/02/18 14:51:46;;;;;;;;;;;;;;;;;;5007042;28;19933;-84
2023/02/18 14:54:12;;;;;;;;;;;;;;;;;;4983356;28;19999;-83
2023/02/18 14:56:38;;;;;;;;;;;;;;;;;;5000077;28;20642;-82
2023/02/18 14:59:04;;;;;;;;;;;;;;;;;;4989511;28;19959;-82
2023/02/18 15:01:30;;;;;;;;;;;;;;;;;;4999426;28;20292;-82
2023/02/18 15:03:56;;;;;;;;;;;;;;;;;;5003421;28;20427;-83
2023/02/18 15:06:22;;;;;;;;;;;;;;;;;;4974836;28;19922;-83
2023/02/18 15:08:48;;;;;;;;;;;;;;;;;;4919186;28;1789277;-83
2023/02/18 15:11:14;;;;;;;;;;;;;;;;;;4990701;28;19932;-83
2023/02/18 15:13:42;;;;;;;;;;;;;;;;;;4993905;28;19928;-82
2023/02/18 15:16:08;;;;;;;;;;;;;;;;;;4976584;28;19968;-82
2023/02/18 15:18:34;;;;;;;;;;;;;;;;;;4987043;28;19929;-83
2023/02/18 15:21:00;;;;;;;;;;;;;;;;;;4996734;28;19971;-82
2023/02/18 15:23:26;;;;;;;;;;;;;;;;;;4975663;28;19960;-82
2023/02/18 15:25:52;;;;;;;;;;;;;;;;;;4975208;28;19989;-81
2023/02/18 15:28:18;;;;;;;;;;;;;;;;;;4995334;28;20071;-81
2023/02/18 15:30:44;;;;;;;;;;;;;;;;;;4998223;28;19980;-82
2023/02/18 15:33:10;;;;;;;;;;;;;;;;;;4984543;28;19925;-82
2023/02/18 15:35:36;;;;;;;;;;;;;;;;;;5002252;28;19949;-83
2023/02/18 15:38:03;;;;;;;;;;;;;;;;;;5001952;28;19925;-83
2023/02/18 15:40:29;;;;;;;;;;;;;;;;;;5004053;28;20037;-82
2023/02/18 15:42:55;;;;;;;;;;;;;;;;;;5027202;28;19936;-82
2023/02/18 15:45:21;;;;;;;;;;;;;;;;;;5010048;28;20320;-82
2023/02/18 15:47:47;;;;;;;;;;;;;;;;;;5004989;28;19929;-83
2023/02/18 15:50:13;;;;;;;;;;;;;;;;;;4978646;28;19937;-83
2023/02/18 15:52:39;;;;;;;;;;;;;;;;;;5014099;28;19926;-83
2023/02/18 15:55:05;;;;;;;;;;;;;;;;;;4974136;28;20550;-83
2023/02/18 15:57:31;;;;;;;;;;;;;;;;;;4998178;28;19925;-83
2023/02/18 15:59:57;;;;;;;;;;;;;;;;;;4998364;28;20061;-83
2023/02/18 16:02:22;;;;;;;;;;;;;;;;;;5000613;28;19937;-83
2023/02/18 16:04:48;;;;;;;;;;;;;;;;;;5013726;28;19934;-84
2023/02/18 16:07:14;;;;;;;;;;;;;;;;;;4976943;28;19936;-83
2023/02/18 16:09:40;;;;;;;;;;;;;;;;;;4998234;28;19936;-83
2023/02/18 16:12:06;;;;;;;;;;;;;;;;;;5001994;28;19925;-83
2023/02/18 16:14:32;;;;;;;;;;;;;;;;;;4999318;28;20012;-82
2023/02/18 16:16:58;;;;;;;;;;;;;;;;;;5000156;28;20023;-83
2023/02/18 16:19:24;;;;;;;;;;;;;;;;;;4975259;28;19948;-85
2023/02/18 16:21:50;;;;;;;;;;;;;;;;;;4975770;28;19929;-83
2023/02/18 16:24:16;;;;;;;;;;;;;;;;;;4979183;28;19921;-82
2023/02/18 16:26:44;;;;;;;;;;;;;;;;;;4995681;28;19926;-83
2023/02/18 16:29:09;;;;;;;;;;;;;;;;;;4984314;28;20020;-83
2023/02/18 16:31:35;;;;;;;;;;;;;;;;;;4991337;28;20056;-83
2023/02/18 16:34:01;;;;;;;;;;;;;;;;;;5003685;28;20003;-84
2023/02/18 16:36:27;;;;;;;;;;;;;;;;;;5002961;28;20307;-83